Poughkeepsie, NY

10:03 AM EST on January 30, 2015 (GMT -0500)
Orange County | Change Station
CLOSE
Current Station
Airport
Location: Montgomery,
Elevation: 364 ft
Nearby Weather Stations
Active Advisory: Wind Chill Advisory Active Notice: Public Information Statement

Elev 364 ft 41.51 °N, 74.26 °W | Updated 9 minutes ago

Snow
Snow
29 °F
Feels Like 23 °F
N
6
Wind Variable Wind from SW

Today
High -- | Low -- °F
--% Chance of Precip.
Yesterday
High -- | Low -- °F
Precip. -- in
7:09 AM 5:08 PM
Waxing Gibbous, 83% visible
Pressure 29.87 in
Visibility 2.5 miles
Clouds Mostly Cloudy 3700 ft
Overcast 4900 ft
Windchill 23 °F
Dew Point 26 °F
Humidity 89%
Rainfall 0.13 in
Snow Depth Not available.
UV 1 out of 12
Pollen .10 out of 12
Air Quality Not available.
Flu Activity Not available.
METAR KMGJ 301454Z AUTO 23005KT 2 1/2SM -SN BR BKN037 OVC049 M02/M03 A2985 RMK AO2 SLP113 P0000 60000 T10171033 51008 TSNO

More Conditions Fewer Conditions

Pressure 29.87 in
Visibility 2.5 miles
Clouds Mostly Cloudy 3700 ft
Overcast 4900 ft
Windchill 23 °F
Dew Point 26 °F
Humidity 89%
Rainfall 0.13 in
Snow Depth Not available.
UV 1 out of 12
Pollen .10 out of 12
Air Quality Not available.
Flu Activity Not available.
METAR KMGJ 301454Z AUTO 23005KT 2 1/2SM -SN BR BKN037 OVC049 M02/M03 A2985 RMK AO2 SLP113 P0000 60000 T10171033 51008 TSNO

More Conditions Fewer Conditions

10-Day Weather Forecast

Almanac

Astronomy

Jan. 30, 2015 Rise Set
Actual Time
Civil Twilight
Nautical Twilight
Astronomical Twilight
Moon
Length of Visible Light
Length of Day
Tomorrow will be .
, % of the Moon is Illuminated

Today's Extremes

State Highs State Lows

Community

WunderPhotos

Upload Photos

1,791,779 photos uploaded!

WunderBlogs® & News

Nearby

Air Quality

  Air Quality AQ Index Pollutant
Not available.

Snow Depth

Station Depth Elevation

Earthquake Activity

City Distance Mag. Time & Date
Minimum magnitude displayed is 2.5.

Coastal Water Temperatures

Place Temperature

Nearby Weather Stations